createdAt,value
2018-06-02T00:00:46.393Z,83.70
2018-06-02T00:03:18.935Z,83.70
2018-06-02T00:05:51.467Z,83.50
2018-06-02T00:08:23.986Z,83.40
2018-06-02T00:10:57.279Z,83.90
2018-06-02T00:13:29.826Z,83.90
2018-06-02T00:16:02.351Z,83.80
2018-06-02T00:18:34.886Z,83.70
2018-06-02T00:21:07.411Z,83.60
2018-06-02T00:23:40.014Z,83.60
2018-06-02T00:26:12.534Z,83.50
2018-06-02T00:28:45.082Z,83.70
2018-06-02T00:31:17.607Z,83.80
2018-06-02T00:33:50.916Z,83.60
2018-06-02T00:36:24.241Z,83.10
2018-06-02T00:38:56.783Z,83.00
2018-06-02T00:41:29.303Z,82.70
2018-06-02T00:44:01.855Z,82.80
2018-06-02T00:46:34.372Z,82.90
2018-06-02T00:49:06.923Z,83.20
2018-06-02T00:51:39.500Z,83.10
2018-06-02T00:54:12.059Z,82.90
2018-06-02T00:56:45.343Z,82.20
2018-06-02T00:59:17.878Z,82.20
2018-06-02T01:01:51.525Z,82.00
2018-06-02T01:04:24.080Z,82.10
2018-06-02T01:06:56.603Z,83.00
2018-06-02T01:09:29.152Z,83.20
2018-06-02T01:12:01.682Z,83.30
2018-06-02T01:14:34.232Z,83.30
2018-06-02T01:17:10.089Z,83.40
2018-06-02T01:19:42.631Z,83.30
2018-06-02T01:22:15.257Z,83.40
2018-06-02T01:24:48.555Z,83.70
2018-06-02T01:27:21.864Z,83.70
2018-06-02T01:29:54.394Z,83.70
2018-06-02T01:32:27.786Z,83.80
2018-06-02T01:35:00.330Z,83.70
2018-06-02T01:37:32.858Z,83.60
2018-06-02T01:40:05.392Z,83.30
2018-06-02T01:42:37.932Z,83.60
2018-06-02T01:45:10.472Z,83.70
2018-06-02T01:47:43.005Z,83.70
2018-06-02T01:50:15.554Z,83.50
2018-06-02T01:52:48.078Z,84.00
2018-06-02T01:55:20.639Z,84.50
2018-06-02T01:57:53.937Z,84.70
2018-06-02T02:00:26.483Z,84.70
2018-06-02T02:02:58.998Z,84.70
2018-06-02T02:05:31.543Z,84.70
2018-06-02T02:08:04.095Z,84.60
2018-06-02T02:10:36.641Z,84.90
2018-06-02T02:13:09.165Z,84.70
2018-06-02T02:15:42.479Z,83.70
2018-06-02T02:18:15.056Z,83.70
2018-06-02T02:20:47.603Z,83.70
2018-06-02T02:23:20.117Z,83.70
2018-06-02T02:25:52.642Z,84.10
2018-06-02T02:28:25.195Z,84.20
2018-06-02T02:30:57.747Z,85.00
2018-06-02T02:33:30.265Z,84.90
2018-06-02T02:36:02.787Z,84.60
2018-06-02T02:38:36.085Z,84.10
2018-06-02T02:41:08.600Z,84.00
2018-06-02T02:43:41.127Z,83.80
2018-06-02T02:46:14.419Z,84.00
2018-06-02T02:48:46.959Z,84.00
2018-06-02T02:51:20.279Z,84.50
2018-06-02T02:53:53.590Z,84.20
2018-06-02T02:56:26.909Z,84.00
2018-06-02T02:58:59.431Z,84.00
2018-06-02T03:01:31.950Z,83.90
2018-06-02T03:04:04.478Z,84.00
2018-06-02T03:06:37.026Z,83.90
2018-06-02T03:09:10.311Z,85.10
2018-06-02T03:11:42.915Z,85.00
2018-06-02T03:14:15.464Z,84.80
2018-06-02T03:16:47.995Z,84.50
2018-06-02T03:19:20.534Z,84.20
2018-06-02T03:21:53.071Z,84.40
2018-06-02T03:24:25.591Z,84.90
2018-06-02T03:26:58.130Z,85.20
2018-06-02T03:29:30.645Z,85.20
2018-06-02T03:32:03.204Z,85.50
2018-06-02T03:34:35.727Z,85.30
2018-06-02T03:37:08.266Z,85.60
2018-06-02T03:39:40.830Z,86.10
2018-06-02T03:42:13.378Z,89.30
2018-06-02T03:44:46.655Z,87.40
2018-06-02T03:47:19.243Z,87.40
2018-06-02T03:49:51.803Z,87.10
2018-06-02T03:52:24.336Z,86.90
2018-06-02T03:54:56.858Z,86.90
2018-06-02T03:57:29.414Z,87.50
2018-06-02T04:00:01.954Z,91.00
2018-06-02T04:02:34.515Z,90.20
2018-06-02T04:05:08.782Z,92.60
2018-06-02T04:07:41.318Z,92.50
2018-06-02T04:10:13.843Z,92.50
2018-06-02T04:12:46.392Z,93.30
2018-06-02T04:15:18.923Z,93.40
2018-06-02T04:17:51.470Z,94.10
2018-06-02T04:20:24.779Z,95.70
2018-06-02T04:22:57.372Z,95.70
2018-06-02T04:25:29.899Z,95.90
2018-06-02T04:28:02.451Z,95.80
2018-06-02T04:30:34.967Z,96.40
2018-06-02T04:33:07.525Z,95.60
2018-06-02T04:35:40.047Z,97.60
2018-06-02T04:38:12.587Z,97.30
2018-06-02T04:40:45.112Z,96.50
2018-06-02T04:43:18.448Z,97.00
2018-06-02T04:45:50.963Z,97.00
2018-06-02T04:48:23.503Z,98.00
2018-06-02T04:50:56.019Z,97.90
2018-06-02T04:53:28.573Z,98.40
2018-06-02T04:56:01.113Z,97.70
2018-06-02T04:58:33.665Z,98.20
2018-06-02T05:01:06.192Z,98.80
2018-06-02T05:03:38.743Z,97.40
2018-06-02T05:06:11.258Z,97.80
2018-06-02T05:08:43.798Z,97.70
2018-06-02T05:11:16.315Z,98.40
2018-06-02T05:13:48.843Z,97.80
2018-06-02T05:16:22.142Z,97.40
2018-06-02T05:18:54.682Z,97.30
2018-06-02T05:21:27.202Z,98.00
2018-06-02T05:23:59.745Z,97.20
2018-06-02T05:26:32.255Z,98.30
2018-06-02T05:29:04.832Z,97.80
2018-06-02T05:31:37.383Z,97.30
2018-06-02T05:34:09.918Z,97.10
2018-06-02T05:36:42.430Z,97.50
2018-06-02T05:39:14.967Z,98.20
2018-06-02T05:41:47.482Z,97.50
2018-06-02T05:44:20.058Z,97.60
2018-06-02T05:46:52.608Z,96.90
2018-06-02T05:49:25.142Z,97.20
2018-06-02T05:51:57.667Z,98.10
2018-06-02T05:54:30.232Z,97.20
2018-06-02T05:57:02.745Z,97.50
2018-06-02T05:59:35.302Z,98.20
2018-06-02T06:02:07.827Z,96.50
2018-06-02T06:04:40.366Z,96.40
2018-06-02T06:07:12.883Z,97.10
2018-06-02T06:09:45.446Z,97.10
2018-06-02T06:12:17.982Z,96.70
2018-06-02T06:14:50.548Z,96.60
2018-06-02T06:17:23.070Z,96.60
2018-06-02T06:19:55.619Z,96.30
2018-06-02T06:22:28.169Z,96.30
2018-06-02T06:25:00.690Z,96.10
2018-06-02T06:27:33.207Z,96.30
2018-06-02T06:30:05.770Z,95.90
2018-06-02T06:32:38.300Z,96.00
2018-06-02T06:35:10.848Z,95.40
2018-06-02T06:37:44.143Z,95.30
2018-06-02T06:40:16.692Z,95.30
2018-06-02T06:42:49.227Z,95.20
2018-06-02T06:45:21.772Z,95.20
2018-06-02T06:47:55.658Z,94.70
2018-06-02T06:50:28.236Z,95.30
2018-06-02T06:53:00.777Z,95.30
2018-06-02T06:55:33.325Z,94.90
2018-06-02T06:58:05.862Z,95.40
2018-06-02T07:00:38.423Z,95.10
2018-06-02T07:03:11.743Z,94.80
2018-06-02T07:05:44.286Z,94.80
2018-06-02T07:08:16.869Z,94.20
2018-06-02T07:10:49.460Z,94.60
2018-06-02T07:13:21.985Z,93.70
2018-06-02T07:15:55.302Z,93.50
2018-06-02T07:18:27.815Z,93.50
2018-06-02T07:21:00.383Z,93.30
2018-06-02T07:23:32.897Z,93.20
2018-06-02T07:26:05.450Z,93.10
2018-06-02T07:28:37.971Z,92.80
2018-06-02T07:31:10.504Z,92.10
2018-06-02T07:33:43.025Z,92.20
2018-06-02T07:36:15.562Z,91.20
2018-06-02T07:38:48.109Z,91.30
2018-06-02T07:41:20.655Z,91.00
2018-06-02T07:43:53.169Z,91.40
2018-06-02T07:46:25.711Z,91.00
2018-06-02T07:48:58.238Z,91.10
2018-06-02T07:51:30.771Z,91.20
2018-06-02T07:54:03.307Z,90.70
2018-06-02T07:56:35.865Z,91.40
2018-06-02T07:59:08.427Z,91.50
2018-06-02T08:01:40.952Z,91.50
2018-06-02T08:04:13.479Z,92.00
2018-06-02T08:06:46.061Z,91.60
2018-06-02T08:09:18.595Z,92.00
2018-06-02T08:11:51.145Z,91.90
2018-06-02T08:14:23.677Z,92.00
2018-06-02T08:16:56.214Z,91.80
2018-06-02T08:19:29.538Z,91.80
2018-06-02T08:22:02.111Z,91.70
2018-06-02T08:24:34.655Z,91.60
2018-06-02T08:27:07.984Z,91.50
2018-06-02T08:29:40.502Z,91.50
2018-06-02T08:32:13.072Z,90.80
2018-06-02T08:34:45.613Z,90.60
2018-06-02T08:37:18.167Z,90.70
2018-06-02T08:39:50.710Z,90.40
2018-06-02T08:42:23.257Z,90.30
2018-06-02T08:44:55.796Z,90.10
2018-06-02T08:47:28.361Z,90.00
2018-06-02T08:50:00.890Z,89.80
2018-06-02T08:52:33.424Z,89.20
2018-06-02T08:55:05.971Z,89.80
2018-06-02T08:57:38.508Z,89.20
2018-06-02T09:00:11.058Z,89.40
2018-06-02T09:02:43.601Z,88.60
2018-06-02T09:05:16.127Z,88.60
2018-06-02T09:07:48.668Z,88.30
2018-06-02T09:10:21.204Z,88.20
2018-06-02T09:12:54.491Z,85.80
2018-06-02T09:15:27.054Z,85.80
2018-06-02T09:18:00.326Z,85.70
2018-06-02T09:20:32.857Z,85.70
2018-06-02T09:23:07.343Z,84.10
2018-06-02T09:25:39.870Z,84.60
2018-06-02T09:28:12.418Z,84.90
2018-06-02T09:30:44.946Z,85.30
2018-06-02T09:33:17.497Z,86.40
2018-06-02T09:35:50.032Z,86.70
2018-06-02T09:38:22.583Z,86.40
2018-06-02T09:40:55.147Z,85.80
2018-06-02T09:43:27.736Z,85.00
2018-06-02T09:46:00.250Z,85.60
2018-06-02T09:48:32.815Z,85.60
2018-06-02T09:51:05.337Z,85.60
2018-06-02T09:53:37.883Z,85.70
2018-06-02T09:56:10.406Z,85.60
2018-06-02T09:58:42.968Z,85.80
2018-06-02T10:01:15.493Z,83.80
2018-06-02T10:03:48.031Z,84.50
2018-06-02T10:06:20.550Z,84.80
2018-06-02T10:08:53.083Z,84.70
2018-06-02T10:11:25.676Z,85.30
2018-06-02T10:13:58.244Z,83.80
2018-06-02T10:16:31.535Z,83.30
2018-06-02T10:19:05.053Z,83.30
2018-06-02T10:21:37.682Z,82.80
2018-06-02T10:24:10.202Z,83.90
2018-06-02T10:26:42.735Z,82.90
2018-06-02T10:29:15.290Z,83.50
2018-06-02T10:31:47.820Z,82.70
2018-06-02T10:34:21.106Z,82.90
2018-06-02T10:36:53.623Z,83.00
2018-06-02T10:39:26.949Z,82.60
2018-06-02T10:41:59.474Z,82.60
2018-06-02T10:44:32.014Z,82.60
2018-06-02T10:47:04.529Z,81.70
2018-06-02T10:49:37.085Z,81.70
2018-06-02T10:52:09.599Z,80.50
2018-06-02T10:54:42.159Z,79.90
2018-06-02T10:57:15.764Z,79.00
2018-06-02T10:59:48.322Z,80.90
2018-06-02T11:02:20.837Z,80.10
2018-06-02T11:04:54.385Z,80.20
2018-06-02T11:07:26.904Z,80.50
2018-06-02T11:09:59.427Z,80.30
2018-06-02T11:12:31.941Z,81.10
2018-06-02T11:15:04.523Z,80.30
2018-06-02T11:17:37.040Z,79.70
2018-06-02T11:20:09.586Z,80.10
2018-06-02T11:22:42.118Z,79.90
2018-06-02T11:25:14.651Z,80.00
2018-06-02T11:27:47.168Z,80.80
2018-06-02T11:30:19.700Z,80.80
2018-06-02T11:32:52.226Z,80.80
2018-06-02T11:35:24.775Z,80.50
2018-06-02T11:37:57.298Z,80.30
2018-06-02T11:40:29.829Z,78.70
2018-06-02T11:43:02.360Z,79.90
2018-06-02T11:45:35.690Z,80.20
2018-06-02T11:48:08.218Z,80.20
2018-06-02T11:50:40.769Z,80.40
2018-06-02T11:53:13.286Z,79.80
2018-06-02T11:55:45.839Z,80.00
2018-06-02T11:58:18.364Z,80.00
2018-06-02T12:00:50.902Z,79.20
2018-06-02T12:03:23.438Z,78.50
2018-06-02T12:05:55.981Z,77.80
2018-06-02T12:08:28.504Z,78.20
2018-06-02T12:11:01.065Z,78.00
2018-06-02T12:13:33.595Z,77.60
2018-06-02T12:16:06.900Z,77.50
2018-06-02T12:18:39.426Z,77.60
2018-06-02T12:21:11.983Z,73.70
2018-06-02T12:23:44.503Z,75.70
2018-06-02T12:26:17.072Z,75.80
2018-06-02T12:28:49.602Z,77.40
2018-06-02T12:31:22.142Z,77.00
2018-06-02T12:33:54.669Z,75.10
2018-06-02T12:36:27.191Z,76.80
2018-06-02T12:38:59.706Z,77.30
2018-06-02T12:41:32.235Z,76.40
2018-06-02T12:44:04.775Z,77.30
2018-06-02T12:46:37.313Z,76.90
2018-06-02T12:49:09.852Z,77.00
2018-06-02T12:51:43.145Z,76.80
2018-06-02T12:54:15.668Z,76.70
2018-06-02T12:56:48.219Z,77.90
2018-06-02T12:59:20.770Z,77.00
2018-06-02T13:01:53.306Z,77.90
2018-06-02T13:04:25.846Z,78.70
2018-06-02T13:06:58.394Z,78.40
2018-06-02T13:09:30.916Z,75.40
2018-06-02T13:12:03.493Z,75.00
2018-06-02T13:14:36.100Z,75.80
2018-06-02T13:17:08.597Z,76.50
2018-06-02T13:19:41.887Z,76.10
2018-06-02T13:22:14.465Z,76.20
2018-06-02T13:24:46.982Z,76.40
2018-06-02T13:27:19.621Z,77.10
2018-06-02T13:29:52.116Z,76.40
2018-06-02T13:32:24.684Z,77.20
2018-06-02T13:34:57.223Z,77.10
2018-06-02T13:37:29.780Z,77.90
2018-06-02T13:40:02.367Z,78.60
2018-06-02T13:42:34.916Z,78.70
2018-06-02T13:45:07.447Z,78.80
2018-06-02T13:47:40.008Z,78.90
2018-06-02T13:50:12.542Z,78.50
2018-06-02T13:52:45.098Z,78.40
2018-06-02T13:55:17.626Z,78.20
2018-06-02T13:57:50.160Z,78.80
2018-06-02T14:00:22.686Z,78.80
2018-06-02T14:02:55.207Z,79.40
2018-06-02T14:05:27.723Z,79.20
2018-06-02T14:08:00.251Z,78.80
2018-06-02T14:10:32.784Z,79.30
2018-06-02T14:13:05.331Z,78.50
2018-06-02T14:15:37.857Z,78.40
2018-06-02T14:18:11.171Z,78.90
2018-06-02T14:20:43.708Z,78.90
2018-06-02T14:23:16.250Z,79.30
2018-06-02T14:25:48.777Z,79.70
2018-06-02T14:28:21.315Z,79.50
2018-06-02T14:30:53.848Z,79.40
2018-06-02T14:33:26.396Z,78.60
2018-06-02T14:35:58.901Z,79.40
2018-06-02T14:38:32.218Z,79.30
2018-06-02T14:41:05.507Z,78.30
2018-06-02T14:43:38.086Z,78.30
2018-06-02T14:46:10.611Z,77.80
2018-06-02T14:48:43.495Z,77.40
2018-06-02T14:51:16.016Z,76.70
2018-06-02T14:53:48.562Z,77.50
2018-06-02T14:56:21.109Z,77.70
2018-06-02T14:58:53.663Z,77.80
2018-06-02T15:01:26.183Z,77.70
2018-06-02T15:03:58.822Z,77.60
2018-06-02T15:06:31.313Z,78.20
2018-06-02T15:09:03.846Z,78.60
2018-06-02T15:11:36.383Z,77.90
2018-06-02T15:14:09.704Z,77.60
2018-06-02T15:16:42.992Z,77.30
2018-06-02T15:19:15.528Z,77.40
2018-06-02T15:21:48.818Z,76.70
2018-06-02T15:24:21.359Z,76.80
2018-06-02T15:26:53.882Z,76.60
2018-06-02T15:29:26.441Z,75.00
2018-06-02T15:31:58.976Z,75.30
2018-06-02T15:34:31.536Z,75.70
2018-06-02T15:37:04.062Z,76.40
2018-06-02T15:39:36.659Z,77.20
2018-06-02T15:42:09.987Z,77.10
2018-06-02T15:44:42.491Z,76.40
2018-06-02T15:47:15.023Z,77.90
2018-06-02T15:49:47.620Z,78.20
2018-06-02T15:52:20.137Z,77.50
2018-06-02T15:54:52.699Z,78.20
2018-06-02T15:57:25.222Z,77.90
2018-06-02T15:59:57.778Z,78.50
2018-06-02T16:02:30.328Z,78.20
2018-06-02T16:05:02.891Z,77.80
2018-06-02T16:07:36.210Z,78.70
2018-06-02T16:10:08.771Z,78.70
2018-06-02T16:12:42.260Z,80.80
2018-06-02T16:15:15.583Z,80.10
2018-06-02T16:17:48.114Z,80.20
2018-06-02T16:20:20.665Z,81.00
2018-06-02T16:22:53.208Z,80.80
2018-06-02T16:25:25.767Z,80.90
2018-06-02T16:28:03.438Z,80.40
2018-06-02T16:30:36.010Z,80.50
2018-06-02T16:33:09.297Z,81.60
2018-06-02T16:35:41.854Z,82.40
2018-06-02T16:38:14.391Z,81.60
2018-06-02T16:40:46.966Z,81.90
2018-06-02T16:43:19.510Z,82.40
2018-06-02T16:45:52.094Z,83.20
2018-06-02T16:48:24.630Z,83.20
2018-06-02T16:50:57.949Z,83.50
2018-06-02T16:53:30.515Z,83.10
2018-06-02T16:56:03.055Z,82.50
2018-06-02T16:58:35.578Z,82.80
2018-06-02T17:01:08.130Z,83.70
2018-06-02T17:03:40.661Z,83.40
2018-06-02T17:06:13.243Z,83.20
2018-06-02T17:08:45.762Z,83.40
2018-06-02T17:11:18.312Z,84.20
2018-06-02T17:13:50.830Z,84.40
2018-06-02T17:16:23.386Z,85.40
2018-06-02T17:18:56.679Z,85.80
2018-06-02T17:21:29.222Z,85.70
2018-06-02T17:24:01.780Z,87.30
2018-06-02T17:26:34.317Z,87.10
2018-06-02T17:29:06.843Z,87.60
2018-06-02T17:31:39.395Z,86.30
2018-06-02T17:34:11.930Z,85.90
2018-06-02T17:36:44.482Z,86.60
2018-06-02T17:39:17.853Z,88.10
2018-06-02T17:41:51.137Z,88.40
2018-06-02T17:44:23.668Z,88.30
2018-06-02T17:46:56.980Z,87.40
2018-06-02T17:49:30.275Z,87.90
2018-06-02T17:52:03.044Z,87.80
2018-06-02T17:54:35.627Z,87.00
2018-06-02T17:57:08.987Z,86.70
2018-06-02T17:59:41.506Z,86.60
2018-06-02T18:02:14.075Z,86.70
2018-06-02T18:04:46.598Z,86.50
2018-06-02T18:07:19.133Z,86.60
2018-06-02T18:09:51.652Z,86.60
2018-06-02T18:12:24.986Z,86.90
2018-06-02T18:14:57.506Z,86.70
2018-06-02T18:17:30.053Z,88.50
2018-06-02T18:20:02.598Z,90.00
2018-06-02T18:22:36.196Z,89.80
2018-06-02T18:25:08.729Z,90.00
2018-06-02T18:27:41.267Z,90.50
2018-06-02T18:30:13.795Z,91.00
2018-06-02T18:32:46.358Z,90.90
2018-06-02T18:35:19.110Z,91.30
2018-06-02T18:37:51.789Z,91.30
2018-06-02T18:40:24.354Z,91.50
2018-06-02T18:42:56.905Z,91.30
2018-06-02T18:45:29.417Z,91.20
2018-06-02T18:48:01.970Z,91.40
2018-06-02T18:50:35.565Z,91.10
2018-06-02T18:53:08.868Z,90.80
2018-06-02T18:55:41.378Z,90.70
2018-06-02T18:58:13.949Z,90.80
2018-06-02T19:00:46.711Z,91.20
2018-06-02T19:03:19.405Z,91.60
2018-06-02T19:05:52.736Z,92.80
2018-06-02T19:08:25.289Z,92.80
2018-06-02T19:10:57.830Z,92.20
2018-06-02T19:13:31.137Z,93.70
2018-06-02T19:16:03.665Z,93.70
2018-06-02T19:18:36.214Z,93.70
2018-06-02T19:21:08.764Z,93.90
2018-06-02T19:23:41.371Z,93.40
2018-06-02T19:26:14.256Z,94.20
2018-06-02T19:28:46.866Z,93.90
2018-06-02T19:31:20.470Z,94.10
2018-06-02T19:33:52.998Z,94.00
2018-06-02T19:36:25.519Z,95.10
2018-06-02T19:38:58.061Z,94.80
2018-06-02T19:41:30.614Z,94.60
2018-06-02T19:44:03.908Z,95.70
2018-06-02T19:46:36.444Z,95.70
2018-06-02T19:49:09.768Z,95.30
2018-06-02T19:51:42.335Z,95.30
2018-06-02T19:54:14.862Z,94.80
2018-06-02T19:56:47.400Z,94.70
2018-06-02T19:59:19.973Z,94.80
2018-06-02T20:01:53.278Z,95.00
2018-06-02T20:04:25.819Z,94.90
2018-06-02T20:06:58.348Z,95.70
2018-06-02T20:09:30.870Z,94.30
2018-06-02T20:12:03.383Z,94.20
2018-06-02T20:14:35.939Z,94.00
2018-06-02T20:17:08.458Z,93.80
2018-06-02T20:19:40.989Z,93.40
2018-06-02T20:22:13.515Z,93.20
2018-06-02T20:24:46.840Z,92.80
2018-06-02T20:27:19.394Z,92.80
2018-06-02T20:29:51.939Z,92.80
2018-06-02T20:32:25.248Z,92.80
2018-06-02T20:34:58.578Z,93.40
2018-06-02T20:37:31.885Z,93.30
2018-06-02T20:40:05.190Z,93.10
2018-06-02T20:42:37.711Z,93.00
2018-06-02T20:45:11.045Z,92.80
2018-06-02T20:47:44.387Z,92.60
2018-06-02T20:50:16.917Z,92.60
2018-06-02T20:52:49.436Z,92.40
2018-06-02T20:55:21.989Z,92.20
2018-06-02T20:57:54.542Z,92.40
2018-06-02T21:00:27.111Z,92.20
2018-06-02T21:02:59.637Z,92.10
2018-06-02T21:05:32.185Z,92.20
2018-06-02T21:08:04.706Z,92.50
2018-06-02T21:10:37.258Z,92.20
2018-06-02T21:13:09.808Z,92.30
2018-06-02T21:15:42.366Z,92.40
2018-06-02T21:18:14.881Z,92.60
2018-06-02T21:20:47.446Z,92.70
2018-06-02T21:23:19.970Z,92.40
2018-06-02T21:25:52.514Z,92.20
2018-06-02T21:28:25.068Z,92.20
2018-06-02T21:30:57.598Z,92.00
2018-06-02T21:33:30.117Z,91.70
2018-06-02T21:36:02.647Z,91.50
2018-06-02T21:38:35.167Z,91.40
2018-06-02T21:41:07.724Z,91.40
2018-06-02T21:43:40.244Z,91.40
2018-06-02T21:46:12.822Z,91.20
2018-06-02T21:48:45.316Z,91.30
2018-06-02T21:51:18.651Z,91.10
2018-06-02T21:53:51.165Z,91.10
2018-06-02T21:56:23.743Z,91.10
2018-06-02T21:58:56.270Z,91.10
2018-06-02T22:01:28.810Z,91.10
2018-06-02T22:04:01.330Z,91.00
2018-06-02T22:06:33.865Z,91.30
2018-06-02T22:09:06.449Z,91.20
2018-06-02T22:11:39.010Z,91.00
2018-06-02T22:14:11.542Z,91.00
2018-06-02T22:16:44.087Z,91.40
2018-06-02T22:19:16.633Z,92.30
2018-06-02T22:21:49.190Z,93.30
2018-06-02T22:24:21.722Z,93.30
2018-06-02T22:26:54.282Z,93.60
2018-06-02T22:29:26.798Z,94.50
2018-06-02T22:31:59.342Z,94.50
2018-06-02T22:34:31.872Z,94.50
2018-06-02T22:37:05.192Z,95.90
2018-06-02T22:39:37.708Z,96.20
2018-06-02T22:42:10.254Z,95.60
2018-06-02T22:44:42.776Z,95.80
2018-06-02T22:47:15.315Z,95.70
2018-06-02T22:49:47.843Z,96.10
2018-06-02T22:52:20.379Z,96.50
2018-06-02T22:54:52.891Z,97.60
2018-06-02T22:57:25.426Z,97.20
2018-06-02T22:59:57.975Z,98.00
2018-06-02T23:02:30.521Z,97.70
2018-06-02T23:05:03.813Z,98.60
2018-06-02T23:07:36.354Z,98.60
2018-06-02T23:10:08.929Z,99.00
2018-06-02T23:12:41.458Z,98.80
2018-06-02T23:15:14.764Z,99.70
2018-06-02T23:17:47.293Z,99.70
2018-06-02T23:20:19.827Z,99.70
2018-06-02T23:22:52.355Z,99.80
2018-06-02T23:25:24.869Z,99.90
2018-06-02T23:27:58.203Z,99.20
2018-06-02T23:30:30.727Z,99.10
2018-06-02T23:33:03.277Z,99.30
2018-06-02T23:35:35.807Z,99.70
2018-06-02T23:38:09.121Z,99.80
2018-06-02T23:40:42.410Z,99.20
2018-06-02T23:43:14.963Z,99.10
2018-06-02T23:45:47.510Z,99.00
2018-06-02T23:48:20.079Z,99.30
2018-06-02T23:50:52.590Z,99.30
2018-06-02T23:53:25.146Z,99.40
2018-06-02T23:55:58.425Z,98.80
2018-06-02T23:58:30.972Z,98.70
